Geervliet — PCLI — position and weather

sailwx.info

Track history (hours):
 
Tides and Currents Weather Stations Pressure Air Temp Water Temp Dewpoint Dewpoint Depression Visibility Wind Speed Wind Dir Waves Ship Positions

Geervliet

Last reported at 2014-Jul-29 06:32 UTC. Time now 2014-Jul-29 06:51 UTC.
Position N 53°07' E 004°27'.

Length 86 m; draft 3.9 m.

Type: Cargo ship. MMSI: 246803000.

Date/timePositionNaut miles runAvg speedWind from/ knotsBaromVisibWave heightAir tempDewpointWater temp
2014-Jul-29 06:32N 53°07' E 004°27'3712.1
2014-Jul-29 03:28N 52°35' E 003°55'1111.8
2014-Jul-29 02:34N 52°27' E 003°45'3410.3
2014-Jul-28 23:13N 51°55' E 003°22'6 9.2
2014-Jul-28 22:33N 51°49' E 003°18'8 8.5
2014-Jul-28 21:33N 51°41' E 003°19'1010.0
2014-Jul-28 20:33N 51°32' E 003°26'1010.5
2014-Jul-28 19:34N 51°27' E 003°40'2 2.2
2014-Jul-28 18:34N 51°27' E 003°44'0 0.0
2014-Jul-28 17:34N 51°27' E 003°44'0 0.0
2014-Jul-28 16:34N 51°27' E 003°44'0 0.0
2014-Jul-28 15:34N 51°27' E 003°44'0 0.0
2014-Jul-28 14:34N 51°27' E 003°44'0 0.0
2014-Jul-28 13:34N 51°27' E 003°44'0 0.0
2014-Jul-28 12:34N 51°27' E 003°44'0 0.0
2014-Jul-28 11:34N 51°27' E 003°44'0 0.0
2014-Jul-28 10:34N 51°27' E 003°44'0 0.0
2014-Jul-28 09:33N 51°27' E 003°44'0 0.0
2014-Jul-28 08:34N 51°27' E 003°44'0 0.0
2014-Jul-28 07:34N 51°27' E 003°44'0 0.0
2014-Jul-28 06:34N 51°27' E 003°44'0 0.0
2014-Jul-28 05:34N 51°27' E 003°44'0 0.0
2014-Jul-28 04:34N 51°27' E 003°44'0 0.0
2014-Jul-28 03:33N 51°27' E 003°44'0 0.0
2014-Jul-28 02:34N 51°27' E 003°44'0 0.0
2014-Jul-28 01:34N 51°27' E 003°44'0 0.0
2014-Jul-28 00:34N 51°27' E 003°44'0 0.0
2014-Jul-27 23:34N 51°27' E 003°44'0 0.0
2014-Jul-27 22:34N 51°27' E 003°44'0 0.0
2014-Jul-27 21:34N 51°27' E 003°44'0 0.0
2014-Jul-27 20:34N 51°27' E 003°44'0 0.0
2014-Jul-27 19:34N 51°27' E 003°44'0 0.0
2014-Jul-27 18:34N 51°27' E 003°44'0 0.0
2014-Jul-27 17:34N 51°27' E 003°44'0 0.0
2014-Jul-27 16:34N 51°27' E 003°44'0 0.0
2014-Jul-27 15:34N 51°27' E 003°44'0 0.0
2014-Jul-27 14:34N 51°27' E 003°44'0 0.0
2014-Jul-27 13:34N 51°27' E 003°44'6 6.4
2014-Jul-27 12:34N 51°27' E 003°33'1212.1
2014-Jul-27 11:33N 51°36' E 003°22'1111.2
2014-Jul-27 10:33N 51°47' E 003°14'8 8.5
2014-Jul-27 09:33N 51°54' E 003°18'9 8.9
2014-Jul-27 08:33N 52°03' E 003°21'9 9.0
2014-Jul-27 07:33N 52°12' E 003°23'9 9.0
2014-Jul-27 06:34N 52°21' E 003°26'9 9.0
2014-Jul-27 05:33N 52°30' E 003°29'9 8.8
2014-Jul-27 04:31N 52°39' E 003°33'8 8.6
2014-Jul-27 03:33N 52°45' E 003°41'10 8.4
2014-Jul-27 02:19N 52°53' E 003°53'6 7.3
2014-Jul-27 01:31N 52°57' E 003°59'35 8.5
2014-Jul-26 21:22N 53°26' E 004°34'8 9.0
2014-Jul-26 20:27N 53°34' E 004°38'23 7.8
2014-Jul-26 17:30N 53°57' E 004°42'39 7.9
2014-Jul-26 12:33N 54°36' E 004°39'8 8.0
2014-Jul-26 11:32N 54°44' E 004°39'8 8.1
2014-Jul-26 10:29N 54°53' E 004°40'8 8.0
2014-Jul-26 09:30N 55°00' E 004°41'8 8.0
2014-Jul-26 08:33N 55°08' E 004°42'8 7.7
2014-Jul-26 07:33N 55°16' E 004°42'8 7.8
2014-Jul-26 06:31N 55°24' E 004°41'8 7.9
2014-Jul-26 05:32N 55°31' E 004°41'8 8.3
2014-Jul-26 04:33N 55°40' E 004°41'11 8.5
2014-Jul-26 03:18N 55°50' E 004°41'7 8.4
2014-Jul-26 02:31N 55°57' E 004°40'64 8.1
2014-Jul-25 18:33N 57°01' E 004°39'34 8.3
2014-Jul-25 14:28N 57°35' E 004°40'51 8.4
2014-Jul-25 08:27N 58°26' E 004°38'7 7.9
2014-Jul-25 07:32N 58°33' E 004°37'8 7.9
2014-Jul-25 06:33N 58°41' E 004°38'8 7.8
2014-Jul-25 05:33N 58°48' E 004°38'8 7.7
2014-Jul-25 04:33N 58°56' E 004°36'8 8.2
2014-Jul-25 03:33N 59°04' E 004°36'8 7.8
2014-Jul-25 02:33N 59°12' E 004°37'8 7.8
2014-Jul-25 01:33N 59°20' E 004°37'8 7.8
2014-Jul-25 00:33N 59°28' E 004°40'9 8.2
2014-Jul-24 23:27N 59°36' E 004°43'41 8.2
2014-Jul-24 18:26N 60°15' E 005°09'9 9.6
2014-Jul-24 17:32N 60°24' E 005°12'  
2014-Jul-21 07:33N 60°28' E 005°15'75 7.2
2014-Jul-20 21:09N 59°16' E 004°37'7 8.0
2014-Jul-20 20:20N 59°09' E 004°38'32 8.4
2014-Jul-20 16:27N 58°37' E 004°38'91 8.3
2014-Jul-20 05:27N 57°06' E 004°40'145 8.0
2014-Jul-19 11:22N 54°41' E 004°47'7 8.6
2014-Jul-19 10:33N 54°34' E 004°47'8 8.5
2014-Jul-19 09:34N 54°26' E 004°47'8 8.4
2014-Jul-19 08:33N 54°17' E 004°46'8 8.2
2014-Jul-19 07:33N 54°09' E 004°48'8 8.3
2014-Jul-19 06:33N 54°01' E 004°48'  
Track history (hours):
 
Tides and Currents Weather Stations Pressure Air Temp Water Temp Dewpoint Dewpoint Depression Visibility Wind Speed Wind Dir Waves Ship Positions

Geervliet

Last reported at 2014-Jul-29 06:32 UTC. Time now 2014-Jul-29 06:51 UTC.
Position N 53°07' E 004°27'.

Length 86 m; draft 3.9 m.

Type: Cargo ship. MMSI: 246803000.

Date/timePositionNaut miles runAvg speedWind from/ knotsBaromVisibWave heightAir tempDewpointWater temp
2014-Jul-29 06:32N 53°07' E 004°27'3712.1
2014-Jul-29 03:28N 52°35' E 003°55'1111.8
2014-Jul-29 02:34N 52°27' E 003°45'3410.3
2014-Jul-28 23:13N 51°55' E 003°22'6 9.2
2014-Jul-28 22:33N 51°49' E 003°18'8 8.5
2014-Jul-28 21:33N 51°41' E 003°19'1010.0
2014-Jul-28 20:33N 51°32' E 003°26'1010.5
2014-Jul-28 19:34N 51°27' E 003°40'2 2.2
2014-Jul-28 18:34N 51°27' E 003°44'0 0.0
2014-Jul-28 17:34N 51°27' E 003°44'0 0.0
2014-Jul-28 16:34N 51°27' E 003°44'0 0.0
2014-Jul-28 15:34N 51°27' E 003°44'0 0.0
2014-Jul-28 14:34N 51°27' E 003°44'0 0.0
2014-Jul-28 13:34N 51°27' E 003°44'0 0.0
2014-Jul-28 12:34N 51°27' E 003°44'0 0.0
2014-Jul-28 11:34N 51°27' E 003°44'0 0.0
2014-Jul-28 10:34N 51°27' E 003°44'0 0.0
2014-Jul-28 09:33N 51°27' E 003°44'0 0.0
2014-Jul-28 08:34N 51°27' E 003°44'0 0.0
2014-Jul-28 07:34N 51°27' E 003°44'0 0.0
2014-Jul-28 06:34N 51°27' E 003°44'0 0.0
2014-Jul-28 05:34N 51°27' E 003°44'0 0.0
2014-Jul-28 04:34N 51°27' E 003°44'0 0.0
2014-Jul-28 03:33N 51°27' E 003°44'0 0.0
2014-Jul-28 02:34N 51°27' E 003°44'0 0.0
2014-Jul-28 01:34N 51°27' E 003°44'0 0.0
2014-Jul-28 00:34N 51°27' E 003°44'0 0.0
2014-Jul-27 23:34N 51°27' E 003°44'0 0.0
2014-Jul-27 22:34N 51°27' E 003°44'0 0.0
2014-Jul-27 21:34N 51°27' E 003°44'0 0.0
2014-Jul-27 20:34N 51°27' E 003°44'0 0.0
2014-Jul-27 19:34N 51°27' E 003°44'0 0.0
2014-Jul-27 18:34N 51°27' E 003°44'0 0.0
2014-Jul-27 17:34N 51°27' E 003°44'0 0.0
2014-Jul-27 16:34N 51°27' E 003°44'0 0.0
2014-Jul-27 15:34N 51°27' E 003°44'0 0.0
2014-Jul-27 14:34N 51°27' E 003°44'0 0.0
2014-Jul-27 13:34N 51°27' E 003°44'6 6.4
2014-Jul-27 12:34N 51°27' E 003°33'1212.1
2014-Jul-27 11:33N 51°36' E 003°22'1111.2
2014-Jul-27 10:33N 51°47' E 003°14'8 8.5
2014-Jul-27 09:33N 51°54' E 003°18'9 8.9
2014-Jul-27 08:33N 52°03' E 003°21'9 9.0
2014-Jul-27 07:33N 52°12' E 003°23'9 9.0
2014-Jul-27 06:34N 52°21' E 003°26'9 9.0
2014-Jul-27 05:33N 52°30' E 003°29'9 8.8
2014-Jul-27 04:31N 52°39' E 003°33'8 8.6
2014-Jul-27 03:33N 52°45' E 003°41'10 8.4
2014-Jul-27 02:19N 52°53' E 003°53'6 7.3
2014-Jul-27 01:31N 52°57' E 003°59'35 8.5
2014-Jul-26 21:22N 53°26' E 004°34'8 9.0
2014-Jul-26 20:27N 53°34' E 004°38'23 7.8
2014-Jul-26 17:30N 53°57' E 004°42'39 7.9
2014-Jul-26 12:33N 54°36' E 004°39'8 8.0
2014-Jul-26 11:32N 54°44' E 004°39'8 8.1
2014-Jul-26 10:29N 54°53' E 004°40'8 8.0
2014-Jul-26 09:30N 55°00' E 004°41'8 8.0
2014-Jul-26 08:33N 55°08' E 004°42'8 7.7
2014-Jul-26 07:33N 55°16' E 004°42'8 7.8
2014-Jul-26 06:31N 55°24' E 004°41'8 7.9
2014-Jul-26 05:32N 55°31' E 004°41'8 8.3
2014-Jul-26 04:33N 55°40' E 004°41'11 8.5
2014-Jul-26 03:18N 55°50' E 004°41'7 8.4
2014-Jul-26 02:31N 55°57' E 004°40'64 8.1
2014-Jul-25 18:33N 57°01' E 004°39'34 8.3
2014-Jul-25 14:28N 57°35' E 004°40'51 8.4
2014-Jul-25 08:27N 58°26' E 004°38'7 7.9
2014-Jul-25 07:32N 58°33' E 004°37'8 7.9
2014-Jul-25 06:33N 58°41' E 004°38'8 7.8
2014-Jul-25 05:33N 58°48' E 004°38'8 7.7
2014-Jul-25 04:33N 58°56' E 004°36'8 8.2
2014-Jul-25 03:33N 59°04' E 004°36'8 7.8
2014-Jul-25 02:33N 59°12' E 004°37'8 7.8
2014-Jul-25 01:33N 59°20' E 004°37'8 7.8
2014-Jul-25 00:33N 59°28' E 004°40'9 8.2
2014-Jul-24 23:27N 59°36' E 004°43'41 8.2
2014-Jul-24 18:26N 60°15' E 005°09'9 9.6
2014-Jul-24 17:32N 60°24' E 005°12'  
2014-Jul-21 07:33N 60°28' E 005°15'75 7.2
2014-Jul-20 21:09N 59°16' E 004°37'7 8.0
2014-Jul-20 20:20N 59°09' E 004°38'32 8.4
2014-Jul-20 16:27N 58°37' E 004°38'91 8.3
2014-Jul-20 05:27N 57°06' E 004°40'145 8.0
2014-Jul-19 11:22N 54°41' E 004°47'7 8.6
2014-Jul-19 10:33N 54°34' E 004°47'8 8.5
2014-Jul-19 09:34N 54°26' E 004°47'8 8.4
2014-Jul-19 08:33N 54°17' E 004°46'8 8.2
2014-Jul-19 07:33N 54°09' E 004°48'8 8.3
2014-Jul-19 06:33N 54°01' E 004°48'  

Dump ship's entire track history